Time;durP1;ratioP1;P1;durP2;ratioP2;P2;SDS_P1;SDS_P2;PMS_P1;PMS_P2;Temp;Humidity;BMP_temperature;BMP_pressure;BME280_temperature;BME280_humidity;BME280_pressure;Samples;Min_cycle;Max_cycle;Signal;HPM_P1;HPM_P2
2023/01/26 00:00:05;;;;;;;49.10;23.83;;;;;;;3.45;100.00;100763.81;4932855;29;20075;-84
2023/01/26 00:02:30;;;;;;;41.03;22.50;;;;;;;3.32;100.00;100767.41;4929648;29;20112;-83
2023/01/26 00:04:56;;;;;;;48.50;22.17;;;;;;;3.42;100.00;100777.13;4930016;29;20122;-82
2023/01/26 00:07:22;;;;;;;41.58;19.80;;;;;;;3.40;100.00;100758.06;4937614;29;20032;-84
2023/01/26 00:09:48;;;;;;;35.28;18.63;;;;;;;3.46;100.00;100765.47;4941608;29;20063;-85
2023/01/26 00:12:13;;;;;;;39.28;16.88;;;;;;;3.64;100.00;100755.47;4930645;29;20138;-82
2023/01/26 00:14:51;;;;;;;31.27;16.30;;;;;;;3.52;100.00;100746.69;4929102;29;20036;-85
2023/01/26 00:17:24;;;;;;;35.22;17.02;;;;;;;3.39;100.00;100751.16;4931046;29;20125;-84
2023/01/26 00:19:57;;;;;;;31.63;16.80;;;;;;;3.38;100.00;100739.00;4932369;29;20036;-85
2023/01/26 00:22:26;;;;;;;37.40;16.85;;;;;;;3.17;100.00;100740.56;4935822;29;20043;-85
2023/01/26 00:24:52;;;;;;;32.25;17.15;;;;;;;3.09;100.00;100743.72;4935145;29;20044;-84
2023/01/26 00:27:17;;;;;;;33.63;16.88;;;;;;;3.16;100.00;100741.50;4925367;29;20043;-82
2023/01/26 00:29:43;;;;;;;33.08;15.40;;;;;;;3.11;100.00;100741.00;4927498;29;20123;-84
2023/01/26 00:32:08;;;;;;;36.38;17.02;;;;;;;2.98;100.00;100741.00;4928404;29;20083;-85
2023/01/26 00:34:33;;;;;;;32.92;16.75;;;;;;;3.19;100.00;100735.19;4922387;29;20040;-85
2023/01/26 00:36:59;;;;;;;33.75;16.85;;;;;;;3.06;100.00;100727.38;4921977;29;20036;-85
2023/01/26 00:39:25;;;;;;;32.40;16.42;;;;;;;3.41;100.00;100728.31;4928437;29;20175;-83
2023/01/26 00:42:05;;;;;;;36.17;18.20;;;;;;;3.48;100.00;100721.66;4933169;29;20040;-82
2023/01/26 00:44:31;;;;;;;35.03;16.67;;;;;;;3.46;100.00;100715.72;4938071;29;20036;-84
2023/01/26 00:46:57;;;;;;;36.08;18.10;;;;;;;3.40;100.00;100710.91;4937867;29;20032;-83
2023/01/26 00:49:22;;;;;;;32.40;18.98;;;;;;;3.41;100.00;100712.59;4937921;29;20031;-81
2023/01/26 00:51:48;;;;;;;42.70;19.13;;;;;;;3.16;100.00;100717.91;4956750;29;20028;-85
2023/01/26 00:54:13;;;;;;;40.08;17.30;;;;;;;2.91;100.00;100704.91;4953449;29;20051;-84
2023/01/26 00:56:39;;;;;;;35.30;17.02;;;;;;;2.88;100.00;100702.53;4955457;29;20039;-83
2023/01/26 00:59:05;;;;;;;30.17;15.57;;;;;;;3.04;100.00;100708.34;4953211;29;20035;-84
2023/01/26 01:01:31;;;;;;;30.48;16.52;;;;;;;3.17;100.00;100710.91;4967585;29;20039;-84
2023/01/26 01:03:58;;;;;;;32.42;16.38;;;;;;;3.10;100.00;100706.13;4952945;29;20458;-85
2023/01/26 01:06:23;;;;;;;38.45;17.48;;;;;;;2.94;100.00;100709.94;4950336;29;20106;-86
2023/01/26 01:08:49;;;;;;;33.85;16.38;;;;;;;2.66;100.00;100699.72;4951113;29;20044;-85
2023/01/26 01:11:15;;;;;;;26.83;15.75;;;;;;;2.74;100.00;100707.88;4947904;29;20039;-84
2023/01/26 01:13:40;;;;;;;37.05;16.92;;;;;;;2.89;100.00;100710.25;4950705;29;20040;-86
2023/01/26 01:16:09;;;;;;;31.42;14.27;;;;;;;2.90;100.00;100711.09;4948420;29;20432;-84
2023/01/26 01:18:35;;;;;;;28.92;13.20;;;;;;;2.88;100.00;100708.59;4933163;29;20032;-84
2023/01/26 01:21:09;;;;;;;29.48;13.07;;;;;;;2.91;100.00;100711.00;4949529;29;20039;-83
2023/01/26 01:23:36;;;;;;;24.65;12.40;;;;;;;2.97;100.00;100717.56;4948796;29;20131;-82
2023/01/26 01:26:03;;;;;;;28.80;13.70;;;;;;;3.05;100.00;100716.06;4946936;29;20059;-83
2023/01/26 01:28:29;;;;;;;27.67;13.60;;;;;;;3.20;100.00;100714.16;4945301;29;20091;-86
2023/01/26 01:30:54;;;;;;;22.67;12.27;;;;;;;3.34;100.00;100710.53;4944937;29;20031;-86
2023/01/26 01:33:21;;;;;;;25.00;12.50;;;;;;;3.25;100.00;100712.00;4959495;29;20051;-85
2023/01/26 01:36:01;;;;;;;25.50;12.52;;;;;;;3.35;100.00;100704.31;4958260;29;20401;-84
2023/01/26 01:38:29;;;;;;;17.20;8.87;;;;;;;3.17;100.00;100709.13;4954329;29;20042;-85
2023/01/26 01:40:55;;;;;;;23.42;11.45;;;;;;;3.21;100.00;100701.88;4938674;29;20091;-87
2023/01/26 01:43:22;;;;;;;25.42;12.10;;;;;;;3.27;100.00;100699.66;4936133;29;20039;-86
2023/01/26 01:45:49;;;;;;;27.85;13.25;;;;;;;3.28;100.00;100687.41;4952502;29;20040;-86
2023/01/26 01:48:28;;;;;;;29.98;14.10;;;;;;;3.24;100.00;100684.16;4937069;29;20465;-85
2023/01/26 01:51:02;;;;;;;28.75;13.18;;;;;;;3.23;100.00;100692.97;4952546;29;20568;-87
2023/01/26 01:53:33;;;;;;;24.35;12.68;;;;;;;3.05;100.00;100691.66;4953090;29;20095;-86
2023/01/26 01:56:03;;;;;;;22.20;12.38;;;;;;;3.24;100.00;100699.88;4937730;29;20039;-84
2023/01/26 01:58:32;;;;;;;26.55;13.43;;;;;;;2.93;100.00;100695.16;4939445;29;20039;-85
2023/01/26 02:00:58;;;;;;;26.75;12.68;;;;;;;2.99;100.00;100695.56;4942356;29;20023;-85
2023/01/26 02:03:28;;;;;;;24.60;12.95;;;;;;;2.94;100.00;100691.59;4942016;29;20055;-85
2023/01/26 02:06:12;;;;;;;29.25;12.95;;;;;;;2.87;100.00;100700.84;4941214;29;20036;-85
2023/01/26 02:08:51;;;;;;;27.48;11.75;;;;;;;3.01;100.00;100692.84;4941359;29;20178;-84
2023/01/26 02:11:29;;;;;;;25.65;11.77;;;;;;;3.27;100.00;100685.72;4960557;29;20498;-84
2023/01/26 02:13:59;;;;;;;28.85;12.75;;;;;;;3.38;100.00;100694.47;4963818;29;20050;-84
2023/01/26 02:16:27;;;;;;;22.45;11.93;;;;;;;3.33;100.00;100685.28;4945407;29;20051;-86
2023/01/26 02:18:53;;;;;;;24.55;12.65;;;;;;;3.38;100.00;100686.59;4947463;29;20035;-86
2023/01/26 02:21:22;;;;;;;25.27;12.00;;;;;;;3.35;100.00;100681.59;4947699;29;20103;-87
2023/01/26 02:23:51;;;;;;;23.10;11.85;;;;;;;3.22;100.00;100685.22;4960251;29;20079;-86
2023/01/26 02:26:20;;;;;;;23.70;11.60;;;;;;;3.44;100.00;100680.94;4957083;29;20035;-86
2023/01/26 02:28:46;;;;;;;22.05;11.45;;;;;;;3.15;100.00;100679.56;4956162;29;20048;-85
2023/01/26 02:31:13;;;;;;;28.85;11.82;;;;;;;3.11;100.00;100675.53;4957796;29;20086;-86
2023/01/26 02:33:40;;;;;;;28.42;12.30;;;;;;;3.01;100.00;100669.28;4943368;29;20036;-84
2023/01/26 02:36:07;;;;;;;24.02;11.65;;;;;;;2.92;100.00;100677.78;4940481;29;20040;-84
2023/01/26 02:38:43;;;;;;;24.17;11.15;;;;;;;2.90;100.00;100663.97;4940782;29;20036;-85
2023/01/26 02:42:37;;;;;;;24.77;12.13;;;;;;;3.11;100.00;100659.81;4958245;29;20161;-86
2023/01/26 02:44:01;;;;;;;23.25;12.27;;;;;;;3.10;100.00;100660.75;4941429;29;20510;-86
2023/01/26 02:46:26;;;;;;;21.33;11.68;;;;;;;3.22;100.00;100652.00;4956334;29;20130;-84
2023/01/26 02:51:36;;;;;;;24.67;11.32;;;;;;;3.21;100.00;100637.25;4946208;29;20040;-86
2023/01/26 02:54:01;;;;;;;25.80;12.32;;;;;;;3.00;100.00;100628.34;4948894;29;20073;-83
2023/01/26 02:56:27;;;;;;;24.55;11.93;;;;;;;3.01;100.00;100624.78;4955217;29;20051;-85
2023/01/26 02:58:54;;;;;;;24.63;11.77;;;;;;;2.67;100.00;100630.75;4967906;29;20032;-84
2023/01/26 03:01:20;;;;;;;27.85;12.10;;;;;;;2.62;100.00;100612.75;4945850;29;20035;-86
2023/01/26 03:03:46;;;;;;;23.05;12.52;;;;;;;2.53;100.00;100629.13;4944502;29;20067;-85
2023/01/26 03:06:14;;;;;;;29.00;12.68;;;;;;;2.78;100.00;100618.59;4942958;29;20080;-84
2023/01/26 03:08:39;;;;;;;26.10;12.13;;;;;;;2.90;100.00;100611.63;4941054;29;20031;-85
2023/01/26 03:11:07;;;;;;;28.88;13.07;;;;;;;2.73;100.00;100604.16;4939842;29;20489;-84
2023/01/26 03:13:32;;;;;;;23.40;12.50;;;;;;;2.72;100.00;100608.53;4939114;29;20043;-86
2023/01/26 03:16:05;;;;;;;31.00;11.73;;;;;;;2.81;100.00;100601.84;4922014;29;20079;-84
2023/01/26 03:29:39;;;;;;;29.33;14.40;;;;;;;2.69;100.00;100592.22;4956221;29;20039;-85
2023/01/26 03:32:04;;;;;;;27.40;13.35;;;;;;;2.37;100.00;100582.28;4959289;29;20055;-83
2023/01/26 03:34:31;;;;;;;24.25;13.18;;;;;;;2.17;100.00;100585.47;4960132;29;20040;-83
2023/01/26 03:36:57;;;;;;;33.08;14.40;;;;;;;2.05;100.00;100576.69;4957934;29;20051;-84
2023/01/26 03:56:31;;;;;;;28.02;14.05;;;;;;;2.75;100.00;100576.09;4952708;29;20051;-86
2023/01/26 03:59:07;;;;;;;28.30;12.75;;;;;;;2.93;100.00;100572.13;4937970;29;20576;-84
2023/01/26 04:01:38;;;;;;;29.58;12.90;;;;;;;2.73;100.00;100570.13;4954098;29;20043;-85
2023/01/26 04:09:38;;;;;;;25.88;12.77;;;;;;;2.84;100.00;100567.59;4952597;29;20044;-82
2023/01/26 04:12:04;;;;;;;26.83;12.57;;;;;;;2.76;100.00;100564.66;4953072;29;20032;-83
2023/01/26 04:22:47;;;;;;;25.13;12.90;;;;;;;3.01;100.00;100541.84;4952081;29;20044;-84
2023/01/26 04:25:17;;;;;;;25.95;12.95;;;;;;;2.83;100.00;100532.72;4952767;29;20040;-83
2023/01/26 04:27:44;;;;;;;27.23;13.18;;;;;;;2.84;100.00;100536.19;4937851;29;20462;-84
2023/01/26 04:30:12;;;;;;;26.77;12.55;;;;;;;2.83;100.00;100532.72;4938170;29;20512;-85
2023/01/26 04:32:38;;;;;;;25.40;12.10;;;;;;;2.49;100.00;100517.78;4936705;29;20035;-84
2023/01/26 04:35:05;;;;;;;26.88;13.70;;;;;;;2.65;100.00;100514.94;4936632;29;20552;-84
2023/01/26 04:37:32;;;;;;;24.60;12.13;;;;;;;2.48;100.00;100521.38;4936316;29;20456;-84
2023/01/26 04:39:58;;;;;;;24.80;12.85;;;;;;;2.31;100.00;100512.13;4952637;29;20040;-84
2023/01/26 04:42:24;;;;;;;27.73;13.07;;;;;;;2.30;100.00;100507.84;4937698;29;20486;-84
2023/01/26 04:44:51;;;;;;;23.90;12.55;;;;;;;2.45;100.00;100522.41;4951997;29;20127;-84
2023/01/26 04:47:20;;;;;;;24.88;12.50;;;;;;;2.45;100.00;100513.75;4952333;29;20071;-84
2023/01/26 04:49:46;;;;;;;32.92;14.20;;;;;;;2.28;100.00;100512.34;4936271;29;20067;-84
2023/01/26 04:52:14;;;;;;;26.50;12.43;;;;;;;2.53;100.00;100507.00;4936305;29;20043;-84
2023/01/26 04:54:39;;;;;;;28.25;13.95;;;;;;;2.39;100.00;100512.41;4952210;29;20102;-87
2023/01/26 04:57:06;;;;;;;30.17;13.75;;;;;;;2.55;100.00;100515.56;4936535;29;20045;-85
2023/01/26 04:59:33;;;;;;;27.35;12.88;;;;;;;2.42;100.00;100512.19;4936069;29;20074;-85
2023/01/26 05:02:00;;;;;;;28.88;12.98;;;;;;;2.36;100.00;100511.78;4936182;29;20035;-85
2023/01/26 05:04:27;;;;;;;27.65;12.88;;;;;;;2.51;100.00;100513.31;4920432;29;20473;-84
2023/01/26 05:06:52;;;;;;;28.52;13.45;;;;;;;2.29;100.00;100511.38;4951795;29;20032;-84
2023/01/26 05:09:18;;;;;;;27.25;13.23;;;;;;;2.36;100.00;100507.38;4935829;29;20047;-85
2023/01/26 05:11:49;;;;;;;30.40;14.07;;;;;;;2.46;100.00;100516.25;4951518;29;20044;-84
2023/01/26 05:14:40;;;;;;;30.65;13.88;;;;;;;2.42;100.00;100517.41;4934546;29;20346;-85
2023/01/26 05:17:16;;;;;;;29.52;13.60;;;;;;;2.80;100.00;100516.41;4951514;29;20525;-84
2023/01/26 05:20:01;;;;;;;30.13;14.05;;;;;;;2.86;100.00;100522.03;4936674;29;20106;-83
2023/01/26 05:22:55;;;;;;;24.88;13.48;;;;;;;3.02;100.00;100521.72;4935818;29;20393;-80
2023/01/26 05:25:23;;;;;;;24.23;13.30;;;;;;;3.15;100.00;100522.47;4946915;29;20059;-84
2023/01/26 05:28:08;;;;;;;27.92;14.00;;;;;;;3.23;100.00;100525.34;4951683;29;20040;-84
2023/01/26 05:30:33;;;;;;;29.13;14.68;;;;;;;3.09;100.00;100522.94;4951478;29;20044;-82
2023/01/26 05:33:02;;;;;;;37.17;15.52;;;;;;;2.75;100.00;100518.53;4951079;28;20032;-84
2023/01/26 05:35:28;;;;;;;30.13;14.98;;;;;;;2.66;100.00;100527.03;4934590;29;20024;-83
2023/01/26 05:37:55;;;;;;;35.03;14.80;;;;;;;2.91;100.00;100524.31;4951318;29;20095;-86
2023/01/26 05:40:22;;;;;;;35.20;14.90;;;;;;;2.89;100.00;100524.41;4935811;29;20540;-86
2023/01/26 05:42:48;;;;;;;31.02;15.50;;;;;;;3.08;100.00;100526.53;4935366;29;20162;-85
2023/01/26 05:45:34;;;;;;;34.10;15.00;;;;;;;3.16;100.00;100526.75;4936812;29;20043;-84
2023/01/26 05:48:00;;;;;;;28.73;15.27;;;;;;;2.76;100.00;100526.25;4950861;29;20046;-83
2023/01/26 05:50:26;;;;;;;32.95;16.33;;;;;;;2.47;100.00;100525.78;4947851;29;20363;-84
2023/01/26 05:53:15;;;;;;;33.00;16.83;;;;;;;2.42;100.00;100521.81;4935974;29;20516;-82
2023/01/26 05:55:42;;;;;;;36.45;16.83;;;;;;;2.28;100.00;100519.34;4935257;29;20044;-86
2023/01/26 05:58:11;;;;;;;40.50;16.85;;;;;;;2.06;100.00;100510.41;4938986;29;20115;-86
2023/01/26 06:00:38;;;;;;;40.50;18.35;;;;;;;1.97;100.00;100510.22;4939015;29;20040;-84
2023/01/26 06:03:13;;;;;;;33.83;16.77;;;;;;;1.86;100.00;100518.81;4943288;29;20032;-83
2023/01/26 06:05:39;;;;;;;42.45;18.35;;;;;;;1.84;100.00;100514.63;4937898;29;20040;-83
2023/01/26 06:08:13;;;;;;;33.58;17.70;;;;;;;1.94;100.00;100510.44;4939602;29;20036;-85
2023/01/26 06:11:02;;;;;;;34.45;17.17;;;;;;;1.98;100.00;100504.06;4939063;29;20375;-85
2023/01/26 06:13:47;;;;;;;38.83;18.05;;;;;;;1.98;100.00;100510.13;4944961;29;20046;-84
2023/01/26 06:16:19;;;;;;;40.75;16.52;;;;;;;1.97;100.00;100510.22;4937787;29;20042;-82
2023/01/26 06:18:51;;;;;;;36.40;17.30;;;;;;;1.89;100.00;100502.09;4938160;29;20043;-83
2023/01/26 06:21:17;;;;;;;33.33;16.67;;;;;;;1.99;100.00;100497.88;4936110;29;20035;-82
2023/01/26 06:23:43;;;;;;;36.58;16.08;;;;;;;1.91;100.00;100497.59;4920011;29;20032;-82
2023/01/26 06:26:08;;;;;;;35.58;15.82;;;;;;;1.80;100.00;100493.13;4935370;29;20035;-82
2023/01/26 06:28:35;;;;;;;41.00;17.50;;;;;;;1.86;100.00;100495.28;4940269;29;20032;-84
2023/01/26 06:31:02;;;;;;;43.22;18.27;;;;;;;1.76;100.00;100496.88;4934950;29;20477;-85
2023/01/26 06:33:29;;;;;;;43.85;18.92;;;;;;;1.85;100.00;100484.97;4925886;29;20151;-82
2023/01/26 06:35:56;;;;;;;40.70;18.10;;;;;;;1.82;100.00;100491.25;4924523;29;20043;-82
2023/01/26 06:38:21;;;;;;;37.97;17.65;;;;;;;1.99;100.00;100477.81;4937969;29;20039;-83
2023/01/26 06:40:47;;;;;;;52.70;17.75;;;;;;;2.07;100.00;100485.94;4953105;29;20040;-86
2023/01/26 06:43:13;;;;;;;35.92;17.08;;;;;;;2.29;100.00;100487.84;4951078;28;20086;-84
2023/01/26 06:45:38;;;;;;;35.78;16.83;;;;;;;2.38;100.00;100479.38;4952877;29;20051;-82
2023/01/26 06:48:04;;;;;;;49.83;18.58;;;;;;;2.49;100.00;100486.41;4921092;29;20500;-81
2023/01/26 06:50:32;;;;;;;36.30;18.10;;;;;;;2.44;100.00;100494.59;4954185;29;20120;-86
2023/01/26 06:53:01;;;;;;;37.53;19.30;;;;;;;2.71;100.00;100490.94;4954320;29;20043;-82
2023/01/26 06:55:50;;;;;;;43.92;19.48;;;;;;;2.65;100.00;100496.63;4953402;29;20035;-84
2023/01/26 06:58:33;;;;;;;40.67;18.33;;;;;;;2.77;100.00;100490.47;4952690;29;20194;-83
2023/01/26 07:01:05;;;;;;;37.50;18.17;;;;;;;2.80;100.00;100491.06;4936842;29;20054;-82
2023/01/26 07:03:33;;;;;;;43.42;18.55;;;;;;;2.71;100.00;100486.53;4938208;29;20481;-81
2023/01/26 07:05:59;;;;;;;39.08;18.02;;;;;;;2.62;100.00;100491.59;4939010;29;20039;-81
2023/01/26 07:08:24;;;;;;;41.05;18.85;;;;;;;2.61;100.00;100482.91;4935648;29;20031;-84
2023/01/26 07:10:50;;;;;;;34.10;16.75;;;;;;;2.45;100.00;100491.03;4938326;29;20028;-82
2023/01/26 07:13:15;;;;;;;34.15;16.55;;;;;;;2.45;100.00;100492.84;4937843;29;20035;-83
2023/01/26 07:15:41;;;;;;;42.83;16.48;;;;;;;2.46;100.00;100495.31;4939083;29;20421;-83
2023/01/26 07:18:06;;;;;;;40.55;18.80;;;;;;;2.43;100.00;100498.16;4940570;29;20020;-82
2023/01/26 07:20:32;;;;;;;42.97;17.83;;;;;;;2.40;100.00;100487.94;4940583;29;20051;-82
2023/01/26 07:23:00;;;;;;;40.42;17.85;;;;;;;2.74;100.00;100490.69;4940603;29;20051;-83
2023/01/26 07:25:26;;;;;;;36.28;17.40;;;;;;;2.89;100.00;100486.94;4940287;29;20126;-84
2023/01/26 07:27:58;;;;;;;45.83;19.75;;;;;;;2.62;100.00;100481.94;4939892;29;20067;-82
2023/01/26 07:30:24;;;;;;;36.47;17.40;;;;;;;2.52;100.00;100487.03;4932495;29;20039;-84
2023/01/26 07:32:50;;;;;;;40.85;18.90;;;;;;;2.54;100.00;100485.16;4928111;29;20027;-82
2023/01/26 07:35:16;;;;;;;52.78;20.20;;;;;;;2.62;100.00;100486.38;4938171;29;20035;-84
2023/01/26 07:37:42;;;;;;;47.05;20.83;;;;;;;2.87;100.00;100486.22;4938107;29;20043;-83
2023/01/26 07:40:08;;;;;;;44.92;21.02;;;;;;;2.75;100.00;100490.56;4938452;29;20024;-85
2023/01/26 07:42:34;;;;;;;41.90;19.92;;;;;;;2.78;100.00;100492.97;4940145;29;20043;-86
2023/01/26 07:45:08;;;;;;;40.85;20.38;;;;;;;2.96;100.00;100485.53;4938331;29;20043;-84
2023/01/26 07:47:34;;;;;;;44.45;21.40;;;;;;;3.06;100.00;100502.22;4938304;29;20032;-84
2023/01/26 07:50:01;;;;;;;41.28;21.52;;;;;;;3.16;100.00;100502.34;4938863;29;20095;-84
2023/01/26 07:52:27;;;;;;;47.70;20.27;;;;;;;3.33;100.00;100500.16;4939376;29;20063;-84
2023/01/26 07:54:53;;;;;;;47.95;20.75;;;;;;;3.34;100.00;100501.81;4937604;29;20505;-83
2023/01/26 07:57:18;;;;;;;46.17;20.60;;;;;;;3.39;100.00;100504.91;4938577;29;20075;-82
2023/01/26 07:59:44;;;;;;;49.70;21.45;;;;;;;3.43;100.00;100506.34;4937100;29;20106;-85
2023/01/26 08:02:09;;;;;;;54.30;21.90;;;;;;;3.36;100.00;100509.53;4937988;29;20060;-83
2023/01/26 08:04:35;;;;;;;46.28;22.25;;;;;;;3.23;100.00;100509.66;4937844;29;20382;-83
2023/01/26 08:07:00;;;;;;;44.45;21.67;;;;;;;3.14;100.00;100507.72;4938160;29;20031;-83
2023/01/26 08:09:26;;;;;;;70.50;29.98;;;;;;;3.08;100.00;100506.38;4937957;29;20040;-83
2023/01/26 08:11:51;;;;;;;64.22;28.98;;;;;;;3.09;100.00;100507.22;4937665;29;20036;-84
2023/01/26 08:14:17;;;;;;;55.30;27.77;;;;;;;3.02;100.00;100506.00;4937723;29;20036;-82
2023/01/26 08:16:44;;;;;;;61.60;27.17;;;;;;;3.00;100.00;100506.13;4925479;29;20032;-84
2023/01/26 08:19:09;;;;;;;63.60;25.05;;;;;;;3.25;100.00;100512.16;4918644;29;20075;-81
2023/01/26 08:21:35;;;;;;;55.05;25.35;;;;;;;3.29;100.00;100503.09;4917215;29;20063;-84
2023/01/26 08:24:02;;;;;;;53.40;25.25;;;;;;;3.34;100.00;100496.59;4918964;29;20533;-83
2023/01/26 08:26:28;;;;;;;59.72;25.83;;;;;;;3.61;100.00;100501.50;4918830;29;20044;-85
2023/01/26 08:28:54;;;;;;;66.18;27.98;;;;;;;3.76;100.00;100496.84;4918628;29;20076;-84
2023/01/26 08:31:20;;;;;;;65.30;27.23;;;;;;;3.78;100.00;100494.94;4918418;29;20082;-83
2023/01/26 08:33:50;;;;;;;65.65;26.73;;;;;;;3.91;100.00;100496.47;4918513;29;20102;-81
2023/01/26 08:36:17;;;;;;;52.50;24.23;;;;;;;4.04;100.00;100494.53;4921119;29;20541;-83
2023/01/26 08:38:43;;;;;;;55.65;26.13;;;;;;;3.79;100.00;100491.34;4918112;29;20067;-82
2023/01/26 08:41:09;;;;;;;58.28;25.77;;;;;;;3.63;100.00;100492.56;4920305;29;20036;-82
2023/01/26 08:43:36;;;;;;;60.22;27.70;;;;;;;3.54;100.00;100490.66;4919054;29;20032;-82
2023/01/26 08:46:02;;;;;;;61.55;26.70;;;;;;;3.40;100.00;100496.13;4918057;29;20036;-82
2023/01/26 08:48:29;;;;;;;56.90;24.50;;;;;;;3.43;100.00;100484.56;4916796;29;20457;-82
2023/01/26 08:50:57;;;;;;;57.80;26.17;;;;;;;3.49;100.00;100484.09;4917898;29;20040;-81
2023/01/26 08:53:23;;;;;;;55.35;26.38;;;;;;;3.47;100.00;100486.84;4918220;29;20020;-81
2023/01/26 08:55:50;;;;;;;59.25;26.65;;;;;;;3.61;100.00;100488.41;4917816;29;20047;-83
2023/01/26 08:58:16;;;;;;;60.95;26.35;;;;;;;3.61;100.00;100483.16;4917893;29;20028;-82
2023/01/26 09:00:41;;;;;;;52.88;24.27;;;;;;;3.68;100.00;100486.94;4918075;29;20071;-83
2023/01/26 09:03:07;;;;;;;67.32;25.92;;;;;;;3.85;100.00;100483.84;4917922;29;20044;-84
2023/01/26 09:05:35;;;;;;;50.72;24.05;;;;;;;4.26;100.00;100484.97;4901177;29;20068;-83
2023/01/26 09:08:02;;;;;;;48.33;23.38;;;;;;;4.61;100.00;100485.59;4917852;29;20063;-81
2023/01/26 09:10:28;;;;;;;60.25;24.73;;;;;;;4.19;100.00;100484.66;4918509;29;20504;-83
2023/01/26 09:12:56;;;;;;;48.33;24.63;;;;;;;3.97;100.00;100484.69;4916865;29;20036;-82
2023/01/26 09:15:22;;;;;;;50.95;24.35;;;;;;;4.04;100.00;100484.06;4918633;29;20047;-83
2023/01/26 09:17:48;;;;;;;57.88;25.15;;;;;;;4.19;100.00;100495.13;4917905;29;20028;-84
2023/01/26 09:20:14;;;;;;;52.25;26.25;;;;;;;4.50;100.00;100483.84;4918122;29;20406;-84
2023/01/26 09:22:39;;;;;;;47.83;22.77;;;;;;;4.57;100.00;100485.00;4917876;29;20039;-83
2023/01/26 09:25:05;;;;;;;43.03;21.75;;;;;;;4.49;100.00;100492.69;4917684;29;20040;-82
2023/01/26 09:27:31;;;;;;;45.00;21.17;;;;;;;4.49;100.00;100490.06;4917465;29;20044;-83
2023/01/26 09:29:57;;;;;;;56.90;25.45;;;;;;;4.54;100.00;100487.88;4917186;29;20035;-81
2023/01/26 09:32:22;;;;;;;49.25;22.45;;;;;;;4.59;100.00;100488.34;4917052;29;20028;-84
2023/01/26 09:34:47;;;;;;;54.55;24.08;;;;;;;4.84;100.00;100486.34;4915661;29;20036;-83
2023/01/26 09:37:17;;;;;;;53.33;25.05;;;;;;;5.30;100.00;100489.44;4916132;29;20028;-84
2023/01/26 09:39:42;;;;;;;44.30;22.23;;;;;;;5.33;100.00;100499.69;4917015;29;20077;-85
2023/01/26 09:42:36;;;;;;;45.90;22.50;;;;;;;5.38;100.00;100496.66;4917258;29;20047;-84
2023/01/26 09:45:10;;;;;;;46.63;22.67;;;;;;;5.58;100.00;100499.28;4917013;29;20394;-83
2023/01/26 09:48:03;;;;;;;52.70;23.13;;;;;;;5.94;100.00;100495.31;4915729;29;20060;-84
2023/01/26 09:50:40;;;;;;;40.60;19.73;;;;;;;5.94;100.00;100504.97;4916904;29;20163;-82
2023/01/26 09:53:14;;;;;;;45.15;20.42;;;;;;;5.50;100.00;100496.44;4916834;29;20076;-83
2023/01/26 09:55:41;;;;;;;54.15;26.40;;;;;;;5.61;100.00;100499.00;4900145;29;20055;-83
2023/01/26 09:58:18;;;;;;;46.85;22.02;;;;;;;5.60;100.00;100504.41;4916922;29;20080;-82
2023/01/26 10:00:59;;;;;;;42.20;20.55;;;;;;;5.79;100.00;100506.28;4915681;29;20505;-83
2023/01/26 10:03:37;;;;;;;37.72;20.17;;;;;;;5.79;100.00;100506.28;4917058;29;20033;-83
2023/01/26 10:06:21;;;;;;;41.33;18.70;;;;;;;5.65;100.00;100500.41;4916015;29;20046;-83
2023/01/26 10:09:28;;;;;;;40.47;17.70;;;;;;;5.74;100.00;100499.63;4918520;29;20413;-83
2023/01/26 10:11:57;;;;;;;31.70;15.68;;;;;;;6.09;100.00;100503.66;4917560;29;20055;-83
2023/01/26 10:14:52;;;;;;;34.75;14.93;;;;;;;6.10;100.00;100505.31;4918147;29;20377;-83
2023/01/26 10:17:21;;;;;;;30.80;14.82;;;;;;;5.85;100.00;100495.22;4917239;29;20036;-83
2023/01/26 10:19:51;;;;;;;34.63;14.95;;;;;;;6.12;100.00;100492.88;4920527;29;20128;-83
2023/01/26 10:22:35;;;;;;;36.63;15.95;;;;;;;6.16;100.00;100489.00;4919950;29;20039;-83
2023/01/26 10:25:00;;;;;;;36.10;15.52;;;;;;;6.23;100.00;100477.00;4920549;29;20036;-83
2023/01/26 10:27:28;;;;;;;34.80;16.02;;;;;;;6.20;100.00;100479.84;4920759;29;20048;-83
2023/01/26 10:29:54;;;;;;;34.60;15.32;;;;;;;6.21;100.00;100479.75;4920594;29;20521;-83
2023/01/26 10:32:19;;;;;;;32.60;16.60;;;;;;;6.11;100.00;100478.03;4919549;29;20119;-85
2023/01/26 10:34:48;;;;;;;34.60;16.35;;;;;;;6.26;100.00;100468.81;4919463;29;20055;-84
2023/01/26 10:37:23;;;;;;;37.38;18.85;;;;;;;6.19;100.00;100472.94;4919176;29;20051;-83
2023/01/26 10:40:08;;;;;;;34.17;18.05;;;;;;;6.23;100.00;100482.25;4921318;29;20068;-82
2023/01/26 10:42:35;;;;;;;33.90;15.85;;;;;;;6.22;100.00;100477.94;4922275;29;20040;-83
2023/01/26 10:45:05;;;;;;;36.65;16.80;;;;;;;6.23;100.00;100469.09;4921976;29;20062;-84
2023/01/26 10:47:30;;;;;;;37.33;17.80;;;;;;;5.77;100.00;100466.16;4920667;29;20043;-83
2023/01/26 10:50:20;;;;;;;35.53;18.13;;;;;;;6.02;100.00;100465.69;4923052;29;20036;-85
2023/01/26 10:52:58;;;;;;;42.13;18.30;;;;;;;5.81;100.00;100447.31;4920183;29;20036;-82
2023/01/26 10:55:23;;;;;;;34.20;16.40;;;;;;;5.90;100.00;100451.00;4904885;29;20446;-83
2023/01/26 10:57:49;;;;;;;42.42;17.63;;;;;;;5.88;100.00;100437.97;4921651;29;20075;-87
2023/01/26 11:00:18;;;;;;;38.03;16.88;;;;;;;5.79;100.00;100438.75;4924523;29;20036;-85
2023/01/26 11:02:53;;;;;;;36.95;18.63;;;;;;;5.88;100.00;100429.25;4922323;29;20044;-85
2023/01/26 11:05:24;;;;;;;44.67;18.35;;;;;;;5.86;100.00;100437.28;4926825;29;20389;-86
2023/01/26 11:07:59;;;;;;;36.53;18.70;;;;;;;6.23;100.00;100440.16;4925967;29;20040;-86
2023/01/26 11:10:30;;;;;;;44.53;18.33;;;;;;;6.18;100.00;100426.56;4925629;29;20043;-84
2023/01/26 11:13:18;;;;;;;42.50;18.50;;;;;;;6.09;100.00;100430.00;4924584;29;20063;-86
2023/01/26 11:15:51;;;;;;;40.05;18.92;;;;;;;6.10;100.00;100426.38;4924959;29;20126;-85
2023/01/26 11:18:34;;;;;;;37.65;18.23;;;;;;;6.46;100.00;100420.50;4924921;29;20095;-84
2023/01/26 11:21:26;;;;;;;38.65;18.25;;;;;;;6.48;100.00;100418.53;4921731;29;20064;-86
2023/01/26 11:24:03;;;;;;;33.50;15.00;;;;;;;6.46;100.00;100412.59;4931368;29;20065;-85
2023/01/26 11:26:43;;;;;;;39.13;17.70;;;;;;;6.41;100.00;100414.78;4937478;29;20044;-84
2023/01/26 11:29:14;;;;;;;39.85;17.67;;;;;;;6.59;100.00;100402.63;4935486;29;20040;-83
2023/01/26 11:32:02;;;;;;;38.88;17.80;;;;;;;6.43;100.00;100394.41;4936728;29;20474;-82
2023/01/26 11:34:32;;;;;;;30.20;15.57;;;;;;;6.30;100.00;100391.22;4926580;29;20485;-84
2023/01/26 11:37:25;;;;;;;34.70;16.33;;;;;;;6.16;100.00;100389.84;4922152;29;20060;-85
2023/01/26 11:40:09;;;;;;;41.63;17.73;;;;;;;5.98;100.00;100375.69;4925572;29;20208;-87
2023/01/26 11:43:00;;;;;;;39.58;18.05;;;;;;;6.24;100.00;100381.25;4935186;29;20501;-83
2023/01/26 11:45:45;;;;;;;32.55;16.90;;;;;;;6.67;100.00;100384.28;4922984;29;20088;-84
2023/01/26 11:48:25;;;;;;;31.63;15.98;;;;;;;6.43;100.00;100368.09;4929462;29;20067;-85
2023/01/26 11:51:22;;;;;;;34.22;16.50;;;;;;;6.51;100.00;100372.66;4923935;29;20491;-86
2023/01/26 11:54:02;;;;;;;34.58;16.33;;;;;;;6.35;100.00;100359.25;4924052;29;20067;-86
2023/01/26 11:56:49;;;;;;;39.55;17.85;;;;;;;6.44;100.00;100361.88;4921102;29;20083;-86
2023/01/26 11:59:20;;;;;;;30.17;15.90;;;;;;;6.70;100.00;100351.56;4922471;29;20185;-86
2023/01/26 12:02:21;;;;;;;23.80;13.20;;;;;;;6.88;100.00;100354.31;4922073;29;20046;-84
2023/01/26 12:04:47;;;;;;;30.63;14.60;;;;;;;6.87;100.00;100340.31;4921926;29;20292;-84
2023/01/26 12:07:20;;;;;;;27.75;14.20;;;;;;;6.95;100.00;100344.88;4926262;29;20466;-85